PWSweather.com
Personal Weather Stations
Station Observations
GIRWX1
Presovsky Kraj, GiraltovceSK

Presovsky KrajGiraltovceSK

Lat: 49.118, Lon: 21.52

Elevation: 630

Station Type: wh1080

http://www.meteogiraltovce.wz.cz/

Latest ConditionsUpdated 5:55:00 PM GMT+01:01 Sunday, Jan 26, 2020
Currently Today's Max Today's Min Today's Average
Temperature 28.9°F-1.7°C 30.0°F-1.1°C 27.0°F-2.8°C 28.3°F-2.1°C
Dew Point 23.6°F-4.7°C 23.9°F-4.5°C 21.2°F-6.0°C 22.8°F-5.1°C
Winds 1.2 mph W1.9 kmh W 8.3 mph -13.4 kmh - - 2.7 mph 4.3 kmh
Wind Gusts 3.1 mph5.0 kmh 12.1 mph19.5 kmh - -
Humidity 80% 81% 75% 79%
Pressure 30.20 in1022.7 mb 30.27 in1025.1 mb 30.20 in1022.7 mb -
Hour Temp Dew Point Humidity Winds Wind Gusts Pressure Precip Precip Rate Daily Precip Total
05:55 PM 28.9°F-1.7°C 23.6°F-4.7°C 80% 1.2 mph W1.9 kmh W 3.1 mph5.0 kmh 30.20 in1022.7 mb 0.00 in0.0 mm 0.00 in0.0 mm 0.00 in0.0 mm
05:50 PM 28.9°F-1.7°C 23.6°F-4.7°C 80% 1.7 mph WSW2.7 kmh WSW 3.1 mph5.0 kmh 30.20 in1022.7 mb 0.00 in0.0 mm 0.00 in0.0 mm 0.00 in0.0 mm
05:45 PM 28.9°F-1.7°C 23.6°F-4.7°C 80% 1.4 mph SW2.3 kmh SW 3.1 mph5.0 kmh 30.20 in1022.7 mb 0.00 in0.0 mm 0.00 in0.0 mm 0.00 in0.0 mm
05:40 PM 28.9°F-1.7°C 23.6°F-4.7°C 80% 2.1 mph SW3.4 kmh SW 3.1 mph5.0 kmh 30.20 in1022.7 mb 0.00 in0.0 mm 0.00 in0.0 mm 0.00 in0.0 mm
05:35 PM 28.9°F-1.7°C 23.6°F-4.7°C 80% 2.1 mph SW3.4 kmh SW 3.1 mph5.0 kmh 30.20 in1022.7 mb 0.00 in0.0 mm 0.00 in0.0 mm 0.00 in0.0 mm
05:30 PM 28.9°F-1.7°C 23.6°F-4.7°C 80% 2.1 mph WSW3.4 kmh WSW 3.1 mph5.0 kmh 30.20 in1022.7 mb 0.00 in0.0 mm 0.00 in0.0 mm 0.00 in0.0 mm
05:25 PM 28.9°F-1.7°C 23.6°F-4.7°C 80% 1.7 mph WSW2.7 kmh WSW 2.2 mph3.5 kmh 30.20 in1022.7 mb 0.00 in0.0 mm 0.00 in0.0 mm 0.00 in0.0 mm
05:20 PM 28.9°F-1.7°C 23.6°F-4.7°C 80% 1.7 mph WSW2.7 kmh WSW 3.1 mph5.0 kmh 30.20 in1022.7 mb 0.00 in0.0 mm 0.00 in0.0 mm 0.00 in0.0 mm
05:15 PM 28.9°F-1.7°C 23.6°F-4.7°C 80% 1.0 mph WSW1.6 kmh WSW 3.1 mph5.0 kmh 30.20 in1022.7 mb 0.00 in0.0 mm 0.00 in0.0 mm 0.00 in0.0 mm
05:10 PM 28.9°F-1.7°C 23.6°F-4.7°C 80% 1.0 mph SW1.6 kmh SW 2.2 mph3.5 kmh 30.20 in1022.7 mb 0.00 in0.0 mm 0.00 in0.0 mm 0.00 in0.0 mm
05:05 PM 28.9°F-1.7°C 23.6°F-4.7°C 80% 2.6 mph SW4.2 kmh SW 4.5 mph7.2 kmh 30.21 in1023.0 mb 0.00 in0.0 mm 0.00 in0.0 mm 0.00 in0.0 mm
05:00 PM 28.9°F-1.7°C 23.6°F-4.7°C 80% 3.6 mph SW5.8 kmh SW 4.5 mph7.2 kmh 30.20 in1022.7 mb 0.00 in0.0 mm 0.00 in0.0 mm 0.00 in0.0 mm
04:55 PM 28.9°F-1.7°C 23.6°F-4.7°C 80% 3.0 mph SW4.8 kmh SW 4.5 mph7.2 kmh 30.20 in1022.7 mb 0.00 in0.0 mm 0.00 in0.0 mm 0.00 in0.0 mm
04:50 PM 28.9°F-1.7°C 23.6°F-4.7°C 80% 3.8 mph SW6.1 kmh SW 5.4 mph8.7 kmh 30.21 in1023.0 mb 0.00 in0.0 mm 0.00 in0.0 mm 0.00 in0.0 mm
04:45 PM 28.9°F-1.7°C 23.6°F-4.7°C 80% 3.2 mph SW5.1 kmh SW 5.4 mph8.7 kmh 30.21 in1023.0 mb 0.00 in0.0 mm 0.00 in0.0 mm 0.00 in0.0 mm
04:40 PM 29.0°F-1.7°C 23.6°F-4.7°C 80% 3.0 mph SW4.8 kmh SW 4.5 mph7.2 kmh 30.21 in1023.0 mb 0.00 in0.0 mm 0.00 in0.0 mm 0.00 in0.0 mm
04:35 PM 29.1°F-1.6°C 23.7°F-4.6°C 80% 2.2 mph SW3.5 kmh SW 3.8 mph6.1 kmh 30.21 in1023.0 mb 0.00 in0.0 mm 0.00 in0.0 mm 0.00 in0.0 mm
04:30 PM 29.1°F-1.6°C 23.7°F-4.6°C 80% 2.5 mph WSW4.0 kmh WSW 3.8 mph6.1 kmh 30.21 in1023.0 mb 0.00 in0.0 mm 0.00 in0.0 mm 0.00 in0.0 mm
04:25 PM 29.1°F-1.6°C 23.7°F-4.6°C 80% 2.6 mph W4.2 kmh W 3.8 mph6.1 kmh 30.21 in1023.0 mb 0.00 in0.0 mm 0.00 in0.0 mm 0.00 in0.0 mm
04:20 PM 29.1°F-1.6°C 23.7°F-4.6°C 80% 1.6 mph WSW2.6 kmh WSW 3.8 mph6.1 kmh 30.21 in1023.0 mb 0.00 in0.0 mm 0.00 in0.0 mm 0.00 in0.0 mm
04:15 PM 29.1°F-1.6°C 23.7°F-4.6°C 80% 1.3 mph WSW2.1 kmh WSW 2.2 mph3.5 kmh 30.21 in1023.0 mb 0.00 in0.0 mm 0.00 in0.0 mm 0.00 in0.0 mm
04:10 PM 29.1°F-1.6°C 23.7°F-4.6°C 80% 1.8 mph SW2.9 kmh SW 3.8 mph6.1 kmh 30.21 in1023.0 mb 0.00 in0.0 mm 0.00 in0.0 mm 0.00 in0.0 mm
04:05 PM 29.1°F-1.6°C 23.7°F-4.6°C 80% 2.2 mph SW3.5 kmh SW 2.2 mph3.5 kmh 30.21 in1023.0 mb 0.00 in0.0 mm 0.00 in0.0 mm 0.00 in0.0 mm
04:00 PM 29.1°F-1.6°C 23.7°F-4.6°C 80% 1.9 mph SSW3.1 kmh SSW 3.8 mph6.1 kmh 30.21 in1023.0 mb 0.00 in0.0 mm 0.00 in0.0 mm 0.00 in0.0 mm
03:55 PM 29.3°F-1.5°C 23.9°F-4.5°C 80% 2.7 mph SW4.3 kmh SW 4.5 mph7.2 kmh 30.21 in1023.0 mb 0.00 in0.0 mm 0.00 in0.0 mm 0.00 in0.0 mm
03:50 PM 29.3°F-1.5°C 23.9°F-4.5°C 80% 2.4 mph SW3.9 kmh SW 3.8 mph6.1 kmh 30.21 in1023.0 mb 0.00 in0.0 mm 0.00 in0.0 mm 0.00 in0.0 mm
03:45 PM 29.2°F-1.6°C 23.9°F-4.5°C 80% 2.4 mph SW3.9 kmh SW 3.8 mph6.1 kmh 30.21 in1023.0 mb 0.00 in0.0 mm 0.00 in0.0 mm 0.00 in0.0 mm
03:40 PM 29.3°F-1.5°C 23.9°F-4.5°C 80% 2.2 mph SSW3.5 kmh SSW 4.5 mph7.2 kmh 30.21 in1023.0 mb 0.00 in0.0 mm 0.00 in0.0 mm 0.00 in0.0 mm
03:35 PM 29.3°F-1.5°C 23.9°F-4.5°C 80% 3.5 mph SW5.6 kmh SW 5.4 mph8.7 kmh 30.21 in1023.0 mb 0.00 in0.0 mm 0.00 in0.0 mm 0.00 in0.0 mm
03:30 PM 29.3°F-1.5°C 23.9°F-4.5°C 80% 2.6 mph SW4.2 kmh SW 4.5 mph7.2 kmh 30.22 in1023.4 mb 0.00 in0.0 mm 0.00 in0.0 mm 0.00 in0.0 mm
03:25 PM 29.3°F-1.5°C 23.7°F-4.6°C 79% 3.9 mph S6.3 kmh S 6.0 mph9.7 kmh 30.21 in1023.0 mb 0.00 in0.0 mm 0.00 in0.0 mm 0.00 in0.0 mm
03:20 PM 29.3°F-1.5°C 23.6°F-4.7°C 79% 3.4 mph S5.5 kmh S 6.0 mph9.7 kmh 30.22 in1023.4 mb 0.00 in0.0 mm 0.00 in0.0 mm 0.00 in0.0 mm
03:15 PM 29.3°F-1.5°C 23.6°F-4.7°C 79% 4.5 mph SSW7.2 kmh SSW 6.9 mph11.1 kmh 30.21 in1023.0 mb 0.00 in0.0 mm 0.00 in0.0 mm 0.00 in0.0 mm
03:10 PM 29.3°F-1.5°C 23.4°F-4.8°C 78% 4.4 mph S7.1 kmh S 6.9 mph11.1 kmh 30.21 in1023.0 mb 0.00 in0.0 mm 0.00 in0.0 mm 0.00 in0.0 mm
03:05 PM 29.3°F-1.5°C 23.3°F-4.8°C 78% 5.7 mph SW9.2 kmh SW 7.6 mph12.2 kmh 30.21 in1023.0 mb 0.00 in0.0 mm 0.00 in0.0 mm 0.00 in0.0 mm
03:00 PM 29.4°F-1.4°C 23.2°F-4.9°C 77% 6.1 mph SSW9.8 kmh SSW 8.3 mph13.4 kmh 30.21 in1023.0 mb 0.00 in0.0 mm 0.00 in0.0 mm 0.00 in0.0 mm
02:55 PM 29.5°F-1.4°C 23.2°F-4.9°C 77% 7.1 mph S11.4 kmh S 9.2 mph14.8 kmh 30.21 in1023.0 mb 0.00 in0.0 mm 0.00 in0.0 mm 0.00 in0.0 mm
02:50 PM 29.6°F-1.3°C 23.1°F-4.9°C 76% 6.0 mph S9.7 kmh S 7.6 mph12.2 kmh 30.21 in1023.0 mb 0.00 in0.0 mm 0.00 in0.0 mm 0.00 in0.0 mm
02:45 PM 29.7°F-1.3°C 23.1°F-4.9°C 76% 6.5 mph S10.5 kmh S 10.7 mph17.2 kmh 30.21 in1023.0 mb 0.00 in0.0 mm 0.00 in0.0 mm 0.00 in0.0 mm
02:40 PM 29.8°F-1.2°C 23.0°F-5.0°C 75% 5.8 mph SW9.3 kmh SW 7.6 mph12.2 kmh 30.21 in1023.0 mb 0.00 in0.0 mm 0.00 in0.0 mm 0.00 in0.0 mm
02:35 PM 29.9°F-1.2°C 22.9°F-5.1°C 75% 7.5 mph S12.1 kmh S 10.7 mph17.2 kmh 30.21 in1023.0 mb 0.00 in0.0 mm 0.00 in0.0 mm 0.00 in0.0 mm
02:30 PM 30.0°F-1.1°C 23.1°F-4.9°C 75% 5.8 mph S9.3 kmh S 9.8 mph15.8 kmh 30.21 in1023.0 mb 0.00 in0.0 mm 0.00 in0.0 mm 0.00 in0.0 mm
02:25 PM 30.0°F-1.1°C 23.2°F-4.9°C 75% 4.9 mph S7.9 kmh S 8.3 mph13.4 kmh 30.21 in1023.0 mb 0.00 in0.0 mm 0.00 in0.0 mm 0.00 in0.0 mm
02:20 PM 30.0°F-1.1°C 23.4°F-4.8°C 76% 5.1 mph S8.2 kmh S 6.9 mph11.1 kmh 30.21 in1023.0 mb 0.00 in0.0 mm 0.00 in0.0 mm 0.00 in0.0 mm
02:15 PM 30.0°F-1.1°C 23.4°F-4.8°C 76% 4.3 mph SSE6.9 kmh SSE 6.9 mph11.1 kmh 30.21 in1023.0 mb 0.00 in0.0 mm 0.00 in0.0 mm 0.00 in0.0 mm
02:10 PM 29.8°F-1.2°C 23.3°F-4.8°C 76% 5.6 mph SSE9.0 kmh SSE 7.6 mph12.2 kmh 30.21 in1023.0 mb 0.00 in0.0 mm 0.00 in0.0 mm 0.00 in0.0 mm
02:05 PM 29.8°F-1.2°C 23.5°F-4.7°C 77% 5.4 mph S8.7 kmh S 6.0 mph9.7 kmh 30.21 in1023.0 mb 0.00 in0.0 mm 0.00 in0.0 mm 0.00 in0.0 mm
02:00 PM 29.7°F-1.3°C 23.4°F-4.8°C 77% 4.6 mph S7.4 kmh S 6.9 mph11.1 kmh 30.21 in1023.0 mb 0.00 in0.0 mm 0.00 in0.0 mm 0.00 in0.0 mm
01:50 PM 29.7°F-1.3°C 23.4°F-4.8°C 77% 3.3 mph S5.3 kmh S 5.4 mph8.7 kmh 30.21 in1023.0 mb 0.00 in0.0 mm 0.00 in0.0 mm 0.00 in0.0 mm
01:45 PM 29.5°F-1.4°C 23.2°F-4.9°C 77% 3.7 mph S6.0 kmh S 6.0 mph9.7 kmh 30.21 in1023.0 mb 0.00 in0.0 mm 0.00 in0.0 mm 0.00 in0.0 mm
01:40 PM 29.5°F-1.4°C 23.2°F-4.9°C 77% 6.0 mph SSE9.7 kmh SSE 7.6 mph12.2 kmh 30.21 in1023.0 mb 0.00 in0.0 mm 0.00 in0.0 mm 0.00 in0.0 mm
01:35 PM 29.7°F-1.3°C 23.4°F-4.8°C 77% 5.6 mph S9.0 kmh S 8.3 mph13.4 kmh 30.21 in1023.0 mb 0.00 in0.0 mm 0.00 in0.0 mm 0.00 in0.0 mm
01:30 PM 29.7°F-1.3°C 23.2°F-4.9°C 77% 4.6 mph S7.4 kmh S 6.9 mph11.1 kmh 30.22 in1023.4 mb 0.00 in0.0 mm 0.00 in0.0 mm 0.00 in0.0 mm
01:25 PM 29.7°F-1.3°C 23.0°F-5.0°C 76% 5.3 mph SW8.5 kmh SW 8.3 mph13.4 kmh 30.22 in1023.4 mb 0.00 in0.0 mm 0.00 in0.0 mm 0.00 in0.0 mm
01:20 PM 29.7°F-1.3°C 23.1°F-4.9°C 76% 6.6 mph SSW10.6 kmh SSW 11.4 mph18.3 kmh 30.22 in1023.4 mb 0.00 in0.0 mm 0.00 in0.0 mm 0.00 in0.0 mm
01:15 PM 29.8°F-1.2°C 23.4°F-4.8°C 77% 8.3 mph SSW13.4 kmh SSW 11.4 mph18.3 kmh 30.22 in1023.4 mb 0.00 in0.0 mm 0.00 in0.0 mm 0.00 in0.0 mm
01:10 PM 29.8°F-1.2°C 23.5°F-4.7°C 77% 6.0 mph S9.7 kmh S 9.2 mph14.8 kmh 30.22 in1023.4 mb 0.00 in0.0 mm 0.00 in0.0 mm 0.00 in0.0 mm
01:05 PM 29.7°F-1.3°C 23.7°F-4.6°C 78% 5.4 mph S8.7 kmh S 9.2 mph14.8 kmh 30.23 in1023.7 mb 0.00 in0.0 mm 0.00 in0.0 mm 0.00 in0.0 mm
01:00 PM 29.7°F-1.3°C 23.7°F-4.6°C 78% 5.8 mph SSW9.3 kmh SSW 9.2 mph14.8 kmh 30.23 in1023.7 mb 0.00 in0.0 mm 0.00 in0.0 mm 0.00 in0.0 mm
12:55 PM 29.5°F-1.4°C 23.8°F-4.6°C 79% 5.3 mph S8.5 kmh S 9.2 mph14.8 kmh 30.23 in1023.7 mb 0.00 in0.0 mm 0.00 in0.0 mm 0.00 in0.0 mm
12:50 PM 29.5°F-1.4°C 23.8°F-4.6°C 79% 4.4 mph SSE7.1 kmh SSE 7.6 mph12.2 kmh 30.23 in1023.7 mb 0.00 in0.0 mm 0.00 in0.0 mm 0.00 in0.0 mm
12:45 PM 29.4°F-1.4°C 23.7°F-4.6°C 79% 6.1 mph S9.8 kmh S 8.3 mph13.4 kmh 30.23 in1023.7 mb 0.00 in0.0 mm 0.00 in0.0 mm 0.00 in0.0 mm
12:25 PM 29.3°F-1.5°C 23.6°F-4.7°C 79% 6.0 mph SE9.7 kmh SE 6.9 mph11.1 kmh 30.24 in1024.0 mb 0.00 in0.0 mm 0.00 in0.0 mm 0.00 in0.0 mm
12:20 PM 29.3°F-1.5°C 23.6°F-4.7°C 79% 4.5 mph SSE7.2 kmh SSE 6.0 mph9.7 kmh 30.24 in1024.0 mb 0.00 in0.0 mm 0.00 in0.0 mm 0.00 in0.0 mm
12:15 PM 29.3°F-1.5°C 23.6°F-4.7°C 79% 6.6 mph SW10.6 kmh SW 9.8 mph15.8 kmh 30.24 in1024.0 mb 0.00 in0.0 mm 0.00 in0.0 mm 0.00 in0.0 mm
12:10 PM 29.1°F-1.6°C 23.7°F-4.6°C 80% 7.6 mph S12.2 kmh S 11.4 mph18.3 kmh 30.25 in1024.4 mb 0.00 in0.0 mm 0.00 in0.0 mm 0.00 in0.0 mm
12:05 PM 29.1°F-1.6°C 23.7°F-4.6°C 80% 5.4 mph S8.7 kmh S 6.0 mph9.7 kmh 30.25 in1024.4 mb 0.00 in0.0 mm 0.00 in0.0 mm 0.00 in0.0 mm
12:00 PM 29.1°F-1.6°C 23.7°F-4.6°C 80% 8.0 mph S12.9 kmh S 12.1 mph19.5 kmh 30.25 in1024.4 mb 0.00 in0.0 mm 0.00 in0.0 mm 0.00 in0.0 mm
11:55 AM 29.1°F-1.6°C 23.7°F-4.6°C 80% 5.7 mph S9.2 kmh S 7.6 mph12.2 kmh 30.25 in1024.4 mb 0.00 in0.0 mm 0.00 in0.0 mm 0.00 in0.0 mm
11:50 AM 28.9°F-1.7°C 23.6°F-4.7°C 80% 5.2 mph S8.4 kmh S 9.2 mph14.8 kmh 30.25 in1024.4 mb 0.00 in0.0 mm 0.00 in0.0 mm 0.00 in0.0 mm
11:45 AM 28.9°F-1.7°C 23.6°F-4.7°C 80% 4.8 mph S7.7 kmh S 6.9 mph11.1 kmh 30.25 in1024.4 mb 0.00 in0.0 mm 0.00 in0.0 mm 0.00 in0.0 mm
11:40 AM 28.8°F-1.8°C 23.4°F-4.8°C 80% 7.1 mph S11.4 kmh S 10.7 mph17.2 kmh 30.25 in1024.4 mb 0.00 in0.0 mm 0.00 in0.0 mm 0.00 in0.0 mm
11:35 AM 28.8°F-1.8°C 23.4°F-4.8°C 80% 8.1 mph S13.0 kmh S 11.4 mph18.3 kmh 30.25 in1024.4 mb 0.00 in0.0 mm 0.00 in0.0 mm 0.00 in0.0 mm
11:30 AM 28.8°F-1.8°C 23.4°F-4.8°C 80% 7.7 mph S12.4 kmh S 9.8 mph15.8 kmh 30.25 in1024.4 mb 0.00 in0.0 mm 0.00 in0.0 mm 0.00 in0.0 mm
11:25 AM 28.8°F-1.8°C 23.4°F-4.8°C 80% 7.1 mph S11.4 kmh S 9.8 mph15.8 kmh 30.25 in1024.4 mb 0.00 in0.0 mm 0.00 in0.0 mm 0.00 in0.0 mm
11:20 AM 28.8°F-1.8°C 23.4°F-4.8°C 80% 6.4 mph S10.3 kmh S 8.3 mph13.4 kmh 30.25 in1024.4 mb 0.00 in0.0 mm 0.00 in0.0 mm 0.00 in0.0 mm
11:14 AM 28.8°F-1.8°C 23.4°F-4.8°C 80% 6.0 mph SW9.7 kmh SW 6.9 mph11.1 kmh 30.25 in1024.4 mb 0.00 in0.0 mm 0.00 in0.0 mm 0.00 in0.0 mm
11:10 AM 28.8°F-1.8°C 23.4°F-4.8°C 80% 5.6 mph SSW9.0 kmh SSW 9.2 mph14.8 kmh 30.26 in1024.7 mb 0.00 in0.0 mm 0.00 in0.0 mm 0.00 in0.0 mm
11:05 AM 28.9°F-1.7°C 23.6°F-4.7°C 80% 7.6 mph S12.2 kmh S 10.7 mph17.2 kmh 30.26 in1024.7 mb 0.00 in0.0 mm 0.00 in0.0 mm 0.00 in0.0 mm
11:00 AM 28.9°F-1.7°C 23.6°F-4.7°C 80% 4.9 mph SW7.9 kmh SW 6.0 mph9.7 kmh 30.26 in1024.7 mb 0.00 in0.0 mm 0.00 in0.0 mm 0.00 in0.0 mm
10:55 AM 28.9°F-1.7°C 23.6°F-4.7°C 80% 7.1 mph SSW11.4 kmh SSW 9.8 mph15.8 kmh 30.26 in1024.7 mb 0.00 in0.0 mm 0.00 in0.0 mm 0.00 in0.0 mm
10:50 AM 28.9°F-1.7°C 23.6°F-4.7°C 80% 4.8 mph SSW7.7 kmh SSW 9.2 mph14.8 kmh 30.26 in1024.7 mb 0.00 in0.0 mm 0.00 in0.0 mm 0.00 in0.0 mm
10:45 AM 28.9°F-1.7°C 23.6°F-4.7°C 80% 5.9 mph S9.5 kmh S 8.3 mph13.4 kmh 30.26 in1024.7 mb 0.00 in0.0 mm 0.00 in0.0 mm 0.00 in0.0 mm
10:40 AM 28.9°F-1.7°C 23.6°F-4.7°C 80% 5.0 mph SW8.0 kmh SW 7.6 mph12.2 kmh 30.26 in1024.7 mb 0.00 in0.0 mm 0.00 in0.0 mm 0.00 in0.0 mm
10:35 AM 28.9°F-1.7°C 23.9°F-4.5°C 81% 4.6 mph SSW7.4 kmh SSW 6.9 mph11.1 kmh 30.26 in1024.7 mb 0.00 in0.0 mm 0.00 in0.0 mm 0.00 in0.0 mm
10:30 AM 28.9°F-1.7°C 23.9°F-4.5°C 81% 3.2 mph SSW5.1 kmh SSW 5.4 mph8.7 kmh 30.26 in1024.7 mb 0.00 in0.0 mm 0.00 in0.0 mm 0.00 in0.0 mm
10:25 AM 28.9°F-1.7°C 23.9°F-4.5°C 81% 4.3 mph S6.9 kmh S 6.0 mph9.7 kmh 30.26 in1024.7 mb 0.00 in0.0 mm 0.00 in0.0 mm 0.00 in0.0 mm
10:20 AM 28.9°F-1.7°C 23.9°F-4.5°C 81% 5.7 mph S9.2 kmh S 7.6 mph12.2 kmh 30.26 in1024.7 mb 0.00 in0.0 mm 0.00 in0.0 mm 0.00 in0.0 mm
10:15 AM 28.8°F-1.8°C 23.7°F-4.6°C 81% 4.0 mph S6.4 kmh S 7.6 mph12.2 kmh 30.26 in1024.7 mb 0.00 in0.0 mm 0.00 in0.0 mm 0.00 in0.0 mm
10:10 AM 28.8°F-1.8°C 23.7°F-4.6°C 81% 4.7 mph S7.6 kmh S 6.9 mph11.1 kmh 30.26 in1024.7 mb 0.00 in0.0 mm 0.00 in0.0 mm 0.00 in0.0 mm
10:05 AM 28.8°F-1.8°C 23.7°F-4.6°C 81% 5.4 mph S8.7 kmh S 6.9 mph11.1 kmh 30.26 in1024.7 mb 0.00 in0.0 mm 0.00 in0.0 mm 0.00 in0.0 mm
10:00 AM 28.8°F-1.8°C 23.7°F-4.6°C 81% 5.5 mph S8.9 kmh S 7.6 mph12.2 kmh 30.26 in1024.7 mb 0.00 in0.0 mm 0.00 in0.0 mm 0.00 in0.0 mm
09:55 AM 28.8°F-1.8°C 23.7°F-4.6°C 81% 5.8 mph S9.3 kmh S 8.3 mph13.4 kmh 30.26 in1024.7 mb 0.00 in0.0 mm 0.00 in0.0 mm 0.00 in0.0 mm
09:50 AM 28.8°F-1.8°C 23.7°F-4.6°C 81% 4.6 mph S7.4 kmh S 8.3 mph13.4 kmh 30.26 in1024.7 mb 0.00 in0.0 mm 0.00 in0.0 mm 0.00 in0.0 mm
09:45 AM 28.8°F-1.8°C 23.7°F-4.6°C 81% 4.3 mph SW6.9 kmh SW 6.9 mph11.1 kmh 30.25 in1024.4 mb 0.00 in0.0 mm 0.00 in0.0 mm 0.00 in0.0 mm
09:40 AM 28.8°F-1.8°C 23.7°F-4.6°C 81% 4.3 mph SW6.9 kmh SW 6.9 mph11.1 kmh 30.26 in1024.7 mb 0.00 in0.0 mm 0.00 in0.0 mm 0.00 in0.0 mm
09:35 AM 28.8°F-1.8°C 23.7°F-4.6°C 81% 5.6 mph SSW9.0 kmh SSW 7.6 mph12.2 kmh 30.26 in1024.7 mb 0.00 in0.0 mm 0.00 in0.0 mm 0.00 in0.0 mm
09:30 AM 28.8°F-1.8°C 23.7°F-4.6°C 81% 4.5 mph SSW7.2 kmh SSW 6.9 mph11.1 kmh 30.25 in1024.4 mb 0.00 in0.0 mm 0.00 in0.0 mm 0.00 in0.0 mm
09:25 AM 28.7°F-1.8°C 23.6°F-4.7°C 81% 4.2 mph SSW6.8 kmh SSW 6.0 mph9.7 kmh 30.25 in1024.4 mb 0.00 in0.0 mm 0.00 in0.0 mm 0.00 in0.0 mm
09:20 AM 28.6°F-1.9°C 23.5°F-4.7°C 81% 4.7 mph S7.6 kmh S 7.6 mph12.2 kmh 30.25 in1024.4 mb 0.00 in0.0 mm 0.00 in0.0 mm 0.00 in0.0 mm
09:15 AM 28.6°F-1.9°C 23.5°F-4.7°C 81% 4.7 mph SSW7.6 kmh SSW 8.3 mph13.4 kmh 30.25 in1024.4 mb 0.00 in0.0 mm 0.00 in0.0 mm 0.00 in0.0 mm
09:10 AM 28.6°F-1.9°C 23.5°F-4.7°C 81% 4.9 mph S7.9 kmh S 6.9 mph11.1 kmh 30.25 in1024.4 mb 0.00 in0.0 mm 0.00 in0.0 mm 0.00 in0.0 mm
09:05 AM 28.6°F-1.9°C 23.5°F-4.7°C 81% 3.6 mph S5.8 kmh S 5.4 mph8.7 kmh 30.25 in1024.4 mb 0.00 in0.0 mm 0.00 in0.0 mm 0.00 in0.0 mm
09:00 AM 28.6°F-1.9°C 23.5°F-4.7°C 81% 3.3 mph SW5.3 kmh SW 4.5 mph7.2 kmh 30.25 in1024.4 mb 0.00 in0.0 mm 0.00 in0.0 mm 0.00 in0.0 mm
08:55 AM 28.6°F-1.9°C 23.5°F-4.7°C 81% 3.6 mph SW5.8 kmh SW 6.0 mph9.7 kmh 30.25 in1024.4 mb 0.00 in0.0 mm 0.00 in0.0 mm 0.00 in0.0 mm
08:50 AM 28.4°F-2.0°C 23.3°F-4.8°C 81% 2.5 mph SSW4.0 kmh SSW 4.5 mph7.2 kmh 30.25 in1024.4 mb 0.00 in0.0 mm 0.00 in0.0 mm 0.00 in0.0 mm
08:45 AM 28.4°F-2.0°C 23.3°F-4.8°C 81% 2.6 mph SW4.2 kmh SW 3.8 mph6.1 kmh 30.25 in1024.4 mb 0.00 in0.0 mm 0.00 in0.0 mm 0.00 in0.0 mm
08:40 AM 28.4°F-2.0°C 23.3°F-4.8°C 81% 3.3 mph S5.3 kmh S 6.0 mph9.7 kmh 30.25 in1024.4 mb 0.00 in0.0 mm 0.00 in0.0 mm 0.00 in0.0 mm
08:35 AM 28.4°F-2.0°C 23.3°F-4.8°C 81% 3.1 mph SW5.0 kmh SW 4.5 mph7.2 kmh 30.24 in1024.0 mb 0.00 in0.0 mm 0.00 in0.0 mm 0.00 in0.0 mm
08:30 AM 28.4°F-2.0°C 23.3°F-4.8°C 81% 3.4 mph S5.5 kmh S 5.4 mph8.7 kmh 30.24 in1024.0 mb 0.00 in0.0 mm 0.00 in0.0 mm 0.00 in0.0 mm
08:25 AM 28.3°F-2.1°C 23.2°F-4.9°C 81% 2.1 mph SSW3.4 kmh SSW 3.8 mph6.1 kmh 30.24 in1024.0 mb 0.00 in0.0 mm 0.00 in0.0 mm 0.00 in0.0 mm
08:20 AM 28.2°F-2.1°C 23.2°F-4.9°C 81% 1.5 mph SSW2.4 kmh SSW 3.1 mph5.0 kmh 30.24 in1024.0 mb 0.00 in0.0 mm 0.00 in0.0 mm 0.00 in0.0 mm
08:15 AM 28.2°F-2.1°C 23.2°F-4.9°C 81% 1.9 mph SW3.1 kmh SW 3.8 mph6.1 kmh 30.25 in1024.4 mb 0.00 in0.0 mm 0.00 in0.0 mm 0.00 in0.0 mm
08:10 AM 28.1°F-2.2°C 23.1°F-4.9°C 81% 1.6 mph SW2.6 kmh SW 3.1 mph5.0 kmh 30.25 in1024.4 mb 0.00 in0.0 mm 0.00 in0.0 mm 0.00 in0.0 mm
08:05 AM 28.0°F-2.2°C 23.0°F-5.0°C 81% 0.7 mph W1.1 kmh W 1.6 mph2.6 kmh 30.25 in1024.4 mb 0.00 in0.0 mm 0.00 in0.0 mm 0.00 in0.0 mm
08:00 AM 28.0°F-2.2°C 23.0°F-5.0°C 81% 0.9 mph SW1.4 kmh SW 2.2 mph3.5 kmh 30.25 in1024.4 mb 0.00 in0.0 mm 0.00 in0.0 mm 0.00 in0.0 mm
07:55 AM 28.0°F-2.2°C 23.0°F-5.0°C 81% 1.2 mph WSW1.9 kmh WSW 2.2 mph3.5 kmh 30.25 in1024.4 mb 0.00 in0.0 mm 0.00 in0.0 mm 0.00 in0.0 mm
07:50 AM 28.0°F-2.2°C 23.0°F-5.0°C 81% 1.6 mph WSW2.6 kmh WSW 3.1 mph5.0 kmh 30.25 in1024.4 mb 0.00 in0.0 mm 0.00 in0.0 mm 0.00 in0.0 mm
07:45 AM 27.9°F-2.3°C 22.9°F-5.1°C 81% 1.2 mph WSW1.9 kmh WSW 2.2 mph3.5 kmh 30.25 in1024.4 mb 0.00 in0.0 mm 0.00 in0.0 mm 0.00 in0.0 mm
07:40 AM 27.9°F-2.3°C 22.8°F-5.1°C 81% 1.3 mph WSW2.1 kmh WSW 2.2 mph3.5 kmh 30.25 in1024.4 mb 0.00 in0.0 mm 0.00 in0.0 mm 0.00 in0.0 mm
07:35 AM 27.9°F-2.3°C 22.8°F-5.1°C 81% 1.6 mph SW2.6 kmh SW 3.1 mph5.0 kmh 30.25 in1024.4 mb 0.00 in0.0 mm 0.00 in0.0 mm 0.00 in0.0 mm
07:30 AM 27.9°F-2.3°C 22.8°F-5.1°C 81% 0.7 mph SW1.1 kmh SW 2.2 mph3.5 kmh 30.25 in1024.4 mb 0.00 in0.0 mm 0.00 in0.0 mm 0.00 in0.0 mm
07:25 AM 27.9°F-2.3°C 22.8°F-5.1°C 81% 1.2 mph SW1.9 kmh SW 2.2 mph3.5 kmh 30.24 in1024.0 mb 0.00 in0.0 mm 0.00 in0.0 mm 0.00 in0.0 mm
07:20 AM 27.9°F-2.3°C 22.8°F-5.1°C 81% 0.6 mph SW1.0 kmh SW 2.2 mph3.5 kmh 30.24 in1024.0 mb 0.00 in0.0 mm 0.00 in0.0 mm 0.00 in0.0 mm
07:15 AM 27.9°F-2.3°C 22.8°F-5.1°C 81% 0.7 mph WSW1.1 kmh WSW 2.2 mph3.5 kmh 30.24 in1024.0 mb 0.00 in0.0 mm 0.00 in0.0 mm 0.00 in0.0 mm
07:10 AM 27.9°F-2.3°C 22.8°F-5.1°C 81% 1.3 mph NW2.1 kmh NW 2.2 mph3.5 kmh 30.24 in1024.0 mb 0.00 in0.0 mm 0.00 in0.0 mm 0.00 in0.0 mm
07:05 AM 27.8°F-2.3°C 22.7°F-5.2°C 81% 1.0 mph WNW1.6 kmh WNW 3.1 mph5.0 kmh 30.24 in1024.0 mb 0.00 in0.0 mm 0.00 in0.0 mm 0.00 in0.0 mm
07:00 AM 27.7°F-2.4°C 22.6°F-5.2°C 81% 1.0 mph WNW1.6 kmh WNW 2.2 mph3.5 kmh 30.24 in1024.0 mb 0.00 in0.0 mm 0.00 in0.0 mm 0.00 in0.0 mm
06:55 AM 27.7°F-2.4°C 22.6°F-5.2°C 81% 0.6 mph WSW1.0 kmh WSW 1.6 mph2.6 kmh 30.24 in1024.0 mb 0.00 in0.0 mm 0.00 in0.0 mm 0.00 in0.0 mm
06:50 AM 27.7°F-2.4°C 22.6°F-5.2°C 81% 1.3 mph W2.1 kmh W 2.2 mph3.5 kmh 30.24 in1024.0 mb 0.00 in0.0 mm 0.00 in0.0 mm 0.00 in0.0 mm
06:45 AM 27.7°F-2.4°C 22.5°F-5.3°C 81% 1.9 mph WNW3.1 kmh WNW 3.1 mph5.0 kmh 30.24 in1024.0 mb 0.00 in0.0 mm 0.00 in0.0 mm 0.00 in0.0 mm
06:40 AM 27.7°F-2.4°C 22.3°F-5.4°C 80% 0.3 mph WSW0.5 kmh WSW 1.6 mph2.6 kmh 30.24 in1024.0 mb 0.00 in0.0 mm 0.00 in0.0 mm 0.00 in0.0 mm
06:35 AM 27.7°F-2.4°C 22.3°F-5.4°C 80% 0.2 mph W0.3 kmh W 1.6 mph2.6 kmh 30.24 in1024.0 mb 0.00 in0.0 mm 0.00 in0.0 mm 0.00 in0.0 mm
06:30 AM 27.7°F-2.4°C 22.3°F-5.4°C 80% 1.0 mph WSW1.6 kmh WSW 2.2 mph3.5 kmh 30.24 in1024.0 mb 0.00 in0.0 mm 0.00 in0.0 mm 0.00 in0.0 mm
06:25 AM 27.7°F-2.4°C 22.3°F-5.4°C 80% 0.3 mph WSW0.5 kmh WSW 1.6 mph2.6 kmh 30.24 in1024.0 mb 0.00 in0.0 mm 0.00 in0.0 mm 0.00 in0.0 mm
06:20 AM 27.7°F-2.4°C 22.3°F-5.4°C 80% Calm Calm 1.6 mph2.6 kmh 30.24 in1024.0 mb 0.00 in0.0 mm 0.00 in0.0 mm 0.00 in0.0 mm
06:15 AM 27.5°F-2.5°C 22.2°F-5.4°C 80% Calm Calm -- 30.24 in1024.0 mb 0.00 in0.0 mm 0.00 in0.0 mm 0.00 in0.0 mm
06:10 AM 27.5°F-2.5°C 22.2°F-5.4°C 80% 0.2 mph W0.3 kmh W 1.6 mph2.6 kmh 30.24 in1024.0 mb 0.00 in0.0 mm 0.00 in0.0 mm 0.00 in0.0 mm
06:05 AM 27.5°F-2.5°C 22.2°F-5.4°C 80% Calm Calm 0.7 mph1.1 kmh 30.24 in1024.0 mb 0.00 in0.0 mm 0.00 in0.0 mm 0.00 in0.0 mm
06:00 AM 27.5°F-2.5°C 22.2°F-5.4°C 80% 0.3 mph SW0.5 kmh SW 1.6 mph2.6 kmh 30.24 in1024.0 mb 0.00 in0.0 mm 0.00 in0.0 mm 0.00 in0.0 mm
05:55 AM 27.5°F-2.5°C 22.2°F-5.4°C 80% Calm Calm 0.7 mph1.1 kmh 30.24 in1024.0 mb 0.00 in0.0 mm 0.00 in0.0 mm 0.00 in0.0 mm
05:50 AM 27.5°F-2.5°C 22.2°F-5.4°C 80% 0.6 mph NNW1.0 kmh NNW 1.6 mph2.6 kmh 30.24 in1024.0 mb 0.00 in0.0 mm 0.00 in0.0 mm 0.00 in0.0 mm
05:45 AM 27.5°F-2.5°C 22.2°F-5.4°C 80% 0.8 mph N1.3 kmh N 1.6 mph2.6 kmh 30.24 in1024.0 mb 0.00 in0.0 mm 0.00 in0.0 mm 0.00 in0.0 mm
05:40 AM 27.5°F-2.5°C 22.2°F-5.4°C 80% 0.7 mph N1.1 kmh N 2.2 mph3.5 kmh 30.24 in1024.0 mb 0.00 in0.0 mm 0.00 in0.0 mm 0.00 in0.0 mm
05:35 AM 27.5°F-2.5°C 22.2°F-5.4°C 80% 1.1 mph N1.8 kmh N 2.2 mph3.5 kmh 30.24 in1024.0 mb 0.00 in0.0 mm 0.00 in0.0 mm 0.00 in0.0 mm
05:30 AM 27.4°F-2.6°C 22.1°F-5.5°C 80% 1.6 mph NE2.6 kmh NE 3.1 mph5.0 kmh 30.24 in1024.0 mb 0.00 in0.0 mm 0.00 in0.0 mm 0.00 in0.0 mm
05:25 AM 27.3°F-2.6°C 22.0°F-5.6°C 80% 1.6 mph NNE2.6 kmh NNE 3.1 mph5.0 kmh 30.24 in1024.0 mb 0.00 in0.0 mm 0.00 in0.0 mm 0.00 in0.0 mm
05:20 AM 27.3°F-2.6°C 22.0°F-5.6°C 80% 1.9 mph NE3.1 kmh NE 3.1 mph5.0 kmh 30.24 in1024.0 mb 0.00 in0.0 mm 0.00 in0.0 mm 0.00 in0.0 mm
05:15 AM 27.3°F-2.6°C 22.0°F-5.6°C 80% 1.6 mph NE2.6 kmh NE 2.2 mph3.5 kmh 30.24 in1024.0 mb 0.00 in0.0 mm 0.00 in0.0 mm 0.00 in0.0 mm
05:10 AM 27.3°F-2.6°C 22.0°F-5.6°C 80% 1.2 mph NNE1.9 kmh NNE 2.2 mph3.5 kmh 30.24 in1024.0 mb 0.00 in0.0 mm 0.00 in0.0 mm 0.00 in0.0 mm
05:05 AM 27.3°F-2.6°C 22.0°F-5.6°C 80% 0.7 mph 1.1 kmh 1.6 mph2.6 kmh 30.24 in1024.0 mb 0.00 in0.0 mm 0.00 in0.0 mm 0.00 in0.0 mm
05:00 AM 27.2°F-2.7°C 21.9°F-5.6°C 80% 1.9 mph NNE3.1 kmh NNE 3.1 mph5.0 kmh 30.24 in1024.0 mb 0.00 in0.0 mm 0.00 in0.0 mm 0.00 in0.0 mm
04:55 AM 27.1°F-2.7°C 21.8°F-5.7°C 80% 1.8 mph NE2.9 kmh NE 3.1 mph5.0 kmh 30.24 in1024.0 mb 0.00 in0.0 mm 0.00 in0.0 mm 0.00 in0.0 mm
04:50 AM 27.1°F-2.7°C 21.8°F-5.7°C 80% 1.4 mph N2.3 kmh N 2.2 mph3.5 kmh 30.24 in1024.0 mb 0.00 in0.0 mm 0.00 in0.0 mm 0.00 in0.0 mm
04:45 AM 27.1°F-2.7°C 21.8°F-5.7°C 80% 1.3 mph NNE2.1 kmh NNE 2.2 mph3.5 kmh 30.24 in1024.0 mb 0.00 in0.0 mm 0.00 in0.0 mm 0.00 in0.0 mm
04:40 AM 27.1°F-2.7°C 21.8°F-5.7°C 80% 1.2 mph N1.9 kmh N 2.2 mph3.5 kmh 30.24 in1024.0 mb 0.00 in0.0 mm 0.00 in0.0 mm 0.00 in0.0 mm
04:35 AM 27.1°F-2.7°C 21.8°F-5.7°C 80% 1.1 mph 1.8 kmh 2.2 mph3.5 kmh 30.24 in1024.0 mb 0.00 in0.0 mm 0.00 in0.0 mm 0.00 in0.0 mm
04:30 AM 27.1°F-2.7°C 21.8°F-5.7°C 80% 0.8 mph NNE1.3 kmh NNE 2.2 mph3.5 kmh 30.24 in1024.0 mb 0.00 in0.0 mm 0.00 in0.0 mm 0.00 in0.0 mm
04:25 AM 27.1°F-2.7°C 21.8°F-5.7°C 80% 1.2 mph NNE1.9 kmh NNE 2.2 mph3.5 kmh 30.24 in1024.0 mb 0.00 in0.0 mm 0.00 in0.0 mm 0.00 in0.0 mm
04:20 AM 27.1°F-2.7°C 21.8°F-5.7°C 80% 0.7 mph 1.1 kmh 1.6 mph2.6 kmh 30.24 in1024.0 mb 0.00 in0.0 mm 0.00 in0.0 mm 0.00 in0.0 mm
04:15 AM 27.1°F-2.7°C 21.8°F-5.7°C 80% 1.4 mph NE2.3 kmh NE 2.2 mph3.5 kmh 30.24 in1024.0 mb 0.00 in0.0 mm 0.00 in0.0 mm 0.00 in0.0 mm
04:10 AM 27.1°F-2.7°C 21.8°F-5.7°C 80% 1.3 mph NE2.1 kmh NE 3.1 mph5.0 kmh 30.24 in1024.0 mb 0.00 in0.0 mm 0.00 in0.0 mm 0.00 in0.0 mm
04:05 AM 27.1°F-2.7°C 21.8°F-5.7°C 80% 0.7 mph NE1.1 kmh NE 1.6 mph2.6 kmh 30.24 in1024.0 mb 0.00 in0.0 mm 0.00 in0.0 mm 0.00 in0.0 mm
04:00 AM 27.1°F-2.7°C 21.8°F-5.7°C 80% 0.4 mph N0.6 kmh N 1.6 mph2.6 kmh 30.24 in1024.0 mb 0.00 in0.0 mm 0.00 in0.0 mm 0.00 in0.0 mm
03:55 AM 27.1°F-2.7°C 21.8°F-5.7°C 80% 0.3 mph NW0.5 kmh NW 1.6 mph2.6 kmh 30.24 in1024.0 mb 0.00 in0.0 mm 0.00 in0.0 mm 0.00 in0.0 mm
03:50 AM 27.1°F-2.7°C 21.8°F-5.7°C 80% 1.0 mph NNE1.6 kmh NNE 2.2 mph3.5 kmh 30.24 in1024.0 mb 0.00 in0.0 mm 0.00 in0.0 mm 0.00 in0.0 mm
03:45 AM 27.1°F-2.7°C 21.5°F-5.8°C 79% 1.3 mph 2.1 kmh 2.2 mph3.5 kmh 30.24 in1024.0 mb 0.00 in0.0 mm 0.00 in0.0 mm 0.00 in0.0 mm
03:40 AM 27.1°F-2.7°C 21.4°F-5.9°C 79% 0.9 mph 1.4 kmh 2.2 mph3.5 kmh 30.24 in1024.0 mb 0.00 in0.0 mm 0.00 in0.0 mm 0.00 in0.0 mm
03:35 AM 27.0°F-2.8°C 21.3°F-5.9°C 79% 0.2 mph NW0.3 kmh NW 1.6 mph2.6 kmh 30.24 in1024.0 mb 0.00 in0.0 mm 0.00 in0.0 mm 0.00 in0.0 mm
03:30 AM 27.0°F-2.8°C 21.3°F-5.9°C 79% 0.5 mph 0.8 kmh 1.6 mph2.6 kmh 30.25 in1024.4 mb 0.00 in0.0 mm 0.00 in0.0 mm 0.00 in0.0 mm
03:25 AM 27.0°F-2.8°C 21.3°F-5.9°C 79% 1.1 mph NNE1.8 kmh NNE 1.6 mph2.6 kmh 30.25 in1024.4 mb 0.00 in0.0 mm 0.00 in0.0 mm 0.00 in0.0 mm
03:20 AM 27.0°F-2.8°C 21.4°F-5.9°C 79% 0.9 mph N1.4 kmh N 2.2 mph3.5 kmh 30.25 in1024.4 mb 0.00 in0.0 mm 0.00 in0.0 mm 0.00 in0.0 mm
03:15 AM 27.1°F-2.7°C 21.5°F-5.8°C 79% 1.6 mph NE2.6 kmh NE 2.2 mph3.5 kmh 30.24 in1024.0 mb 0.00 in0.0 mm 0.00 in0.0 mm 0.00 in0.0 mm
03:10 AM 27.1°F-2.7°C 21.5°F-5.8°C 79% 1.6 mph NE2.6 kmh NE 2.2 mph3.5 kmh 30.24 in1024.0 mb 0.00 in0.0 mm 0.00 in0.0 mm 0.00 in0.0 mm
03:05 AM 27.1°F-2.7°C 21.5°F-5.8°C 79% 1.2 mph NE1.9 kmh NE 2.2 mph3.5 kmh 30.24 in1024.0 mb 0.00 in0.0 mm 0.00 in0.0 mm 0.00 in0.0 mm
03:00 AM 27.1°F-2.7°C 21.5°F-5.8°C 79% 0.6 mph NNE1.0 kmh NNE 1.6 mph2.6 kmh 30.25 in1024.4 mb 0.00 in0.0 mm 0.00 in0.0 mm 0.00 in0.0 mm
02:55 AM 27.1°F-2.7°C 21.5°F-5.8°C 79% 1.1 mph NNE1.8 kmh NNE 1.6 mph2.6 kmh 30.25 in1024.4 mb 0.00 in0.0 mm 0.00 in0.0 mm 0.00 in0.0 mm
02:50 AM 27.1°F-2.7°C 21.5°F-5.8°C 79% 0.2 mph NW0.3 kmh NW 1.6 mph2.6 kmh 30.25 in1024.4 mb 0.00 in0.0 mm 0.00 in0.0 mm 0.00 in0.0 mm
02:45 AM 27.1°F-2.7°C 21.5°F-5.8°C 79% 0.6 mph 1.0 kmh 1.6 mph2.6 kmh 30.25 in1024.4 mb 0.00 in0.0 mm 0.00 in0.0 mm 0.00 in0.0 mm
02:40 AM 27.1°F-2.7°C 21.3°F-5.9°C 78% 0.4 mph 0.6 kmh 1.6 mph2.6 kmh 30.25 in1024.4 mb 0.00 in0.0 mm 0.00 in0.0 mm 0.00 in0.0 mm
02:35 AM 27.1°F-2.7°C 21.2°F-6.0°C 78% 1.1 mph 1.8 kmh 2.2 mph3.5 kmh 30.25 in1024.4 mb 0.00 in0.0 mm 0.00 in0.0 mm 0.00 in0.0 mm
02:30 AM 27.1°F-2.7°C 21.2°F-6.0°C 78% 2.4 mph N3.9 kmh N 3.8 mph6.1 kmh 30.25 in1024.4 mb 0.00 in0.0 mm 0.00 in0.0 mm 0.00 in0.0 mm
02:25 AM 27.1°F-2.7°C 21.2°F-6.0°C 78% 3.6 mph NNW5.8 kmh NNW 4.5 mph7.2 kmh 30.26 in1024.7 mb 0.00 in0.0 mm 0.00 in0.0 mm 0.00 in0.0 mm
02:20 AM 27.3°F-2.6°C 21.4°F-5.9°C 78% 2.9 mph NW4.7 kmh NW 3.8 mph6.1 kmh 30.26 in1024.7 mb 0.00 in0.0 mm 0.00 in0.0 mm 0.00 in0.0 mm
02:15 AM 27.3°F-2.6°C 21.4°F-5.9°C 78% 1.4 mph NW2.3 kmh NW 3.1 mph5.0 kmh 30.26 in1024.7 mb 0.00 in0.0 mm 0.00 in0.0 mm 0.00 in0.0 mm
02:10 AM 27.3°F-2.6°C 21.4°F-5.9°C 78% 1.3 mph W2.1 kmh W 3.1 mph5.0 kmh 30.26 in1024.7 mb 0.00 in0.0 mm 0.00 in0.0 mm 0.00 in0.0 mm
02:05 AM 27.3°F-2.6°C 21.4°F-5.9°C 78% 0.7 mph NW1.1 kmh NW 0.7 mph1.1 kmh 30.26 in1024.7 mb 0.00 in0.0 mm 0.00 in0.0 mm 0.00 in0.0 mm
02:00 AM 27.3°F-2.6°C 21.4°F-5.9°C 78% 0.2 mph NW0.3 kmh NW 1.6 mph2.6 kmh 30.26 in1024.7 mb 0.00 in0.0 mm 0.00 in0.0 mm 0.00 in0.0 mm
01:55 AM 27.3°F-2.6°C 21.4°F-5.9°C 78% 0.3 mph NE0.5 kmh NE 1.6 mph2.6 kmh 30.26 in1024.7 mb 0.00 in0.0 mm 0.00 in0.0 mm 0.00 in0.0 mm
01:50 AM 27.3°F-2.6°C 21.4°F-5.9°C 78% 0.5 mph NNW0.8 kmh NNW 1.6 mph2.6 kmh 30.26 in1024.7 mb 0.00 in0.0 mm 0.00 in0.0 mm 0.00 in0.0 mm
01:45 AM 27.3°F-2.6°C 21.4°F-5.9°C 78% 0.8 mph NNW1.3 kmh NNW 2.2 mph3.5 kmh 30.26 in1024.7 mb 0.00 in0.0 mm 0.00 in0.0 mm 0.00 in0.0 mm
01:40 AM 27.3°F-2.6°C 21.4°F-5.9°C 78% 0.7 mph NW1.1 kmh NW 1.6 mph2.6 kmh 30.26 in1024.7 mb 0.00 in0.0 mm 0.00 in0.0 mm 0.00 in0.0 mm
01:35 AM 27.3°F-2.6°C 21.4°F-5.9°C 78% 0.7 mph WNW1.1 kmh WNW 1.6 mph2.6 kmh 30.26 in1024.7 mb 0.00 in0.0 mm 0.00 in0.0 mm 0.00 in0.0 mm
01:30 AM 27.3°F-2.6°C 21.4°F-5.9°C 78% Calm Calm 0.7 mph1.1 kmh 30.26 in1024.7 mb 0.00 in0.0 mm 0.00 in0.0 mm 0.00 in0.0 mm
01:25 AM 27.3°F-2.6°C 21.4°F-5.9°C 78% 0.2 mph W0.3 kmh W 1.6 mph2.6 kmh 30.26 in1024.7 mb 0.00 in0.0 mm 0.00 in0.0 mm 0.00 in0.0 mm
01:20 AM 27.3°F-2.6°C 21.4°F-5.9°C 78% 0.9 mph W1.4 kmh W 1.6 mph2.6 kmh 30.26 in1024.7 mb 0.00 in0.0 mm 0.00 in0.0 mm 0.00 in0.0 mm
01:15 AM 27.3°F-2.6°C 21.4°F-5.9°C 78% 0.3 mph W0.5 kmh W 1.6 mph2.6 kmh 30.26 in1024.7 mb 0.00 in0.0 mm 0.00 in0.0 mm 0.00 in0.0 mm
01:10 AM 27.3°F-2.6°C 21.4°F-5.9°C 78% 0.3 mph W0.5 kmh W 1.6 mph2.6 kmh 30.26 in1024.7 mb 0.00 in0.0 mm 0.00 in0.0 mm 0.00 in0.0 mm
01:05 AM 27.3°F-2.6°C 21.4°F-5.9°C 78% Calm Calm 0.7 mph1.1 kmh 30.27 in1025.1 mb 0.00 in0.0 mm 0.00 in0.0 mm 0.00 in0.0 mm
01:00 AM 27.3°F-2.6°C 21.4°F-5.9°C 78% Calm Calm -- 30.26 in1024.7 mb 0.00 in0.0 mm 0.00 in0.0 mm 0.00 in0.0 mm
12:55 AM 27.3°F-2.6°C 21.4°F-5.9°C 78% Calm Calm 0.7 mph1.1 kmh 30.26 in1024.7 mb 0.00 in0.0 mm 0.00 in0.0 mm 0.00 in0.0 mm
12:50 AM 27.3°F-2.6°C 21.4°F-5.9°C 78% 0.3 mph W0.5 kmh W 1.6 mph2.6 kmh 30.27 in1025.1 mb 0.00 in0.0 mm 0.00 in0.0 mm 0.00 in0.0 mm
12:45 AM 27.3°F-2.6°C 21.4°F-5.9°C 78% 0.6 mph W1.0 kmh W 1.6 mph2.6 kmh 30.27 in1025.1 mb 0.00 in0.0 mm 0.00 in0.0 mm 0.00 in0.0 mm
12:40 AM 27.3°F-2.6°C 21.4°F-5.9°C 78% 0.2 mph W0.3 kmh W 1.6 mph2.6 kmh 30.27 in1025.1 mb 0.00 in0.0 mm 0.00 in0.0 mm 0.00 in0.0 mm
12:35 AM 27.3°F-2.6°C 21.4°F-5.9°C 78% 0.2 mph W0.3 kmh W 0.7 mph1.1 kmh 30.27 in1025.1 mb 0.00 in0.0 mm 0.00 in0.0 mm 0.00 in0.0 mm
12:30 AM 27.3°F-2.6°C 21.4°F-5.9°C 78% 0.6 mph W1.0 kmh W 1.6 mph2.6 kmh 30.27 in1025.1 mb 0.00 in0.0 mm 0.00 in0.0 mm 0.00 in0.0 mm
12:25 AM 27.3°F-2.6°C 21.4°F-5.9°C 78% 0.4 mph W0.6 kmh W 1.6 mph2.6 kmh 30.27 in1025.1 mb 0.00 in0.0 mm 0.00 in0.0 mm 0.00 in0.0 mm
12:20 AM 27.3°F-2.6°C 21.4°F-5.9°C 78% Calm Calm -- 30.27 in1025.1 mb 0.00 in0.0 mm 0.00 in0.0 mm 0.00 in0.0 mm
12:15 AM 27.3°F-2.6°C 21.4°F-5.9°C 78% 0.3 mph W0.5 kmh W 1.6 mph2.6 kmh 30.27 in1025.1 mb 0.00 in0.0 mm 0.00 in0.0 mm 0.00 in0.0 mm
12:10 AM 27.3°F-2.6°C 21.4°F-5.9°C 78% 0.3 mph W0.5 kmh W 1.6 mph2.6 kmh 30.27 in1025.1 mb 0.00 in0.0 mm 0.00 in0.0 mm 0.00 in0.0 mm
12:05 AM 27.3°F-2.6°C 21.4°F-5.9°C 78% Calm Calm -- 30.27 in1025.1 mb 0.00 in0.0 mm 0.00 in0.0 mm 0.00 in0.0 mm
12:00 AM 27.3°F-2.6°C 21.4°F-5.9°C 78% Calm Calm 0.7 mph1.1 kmh 30.27 in1025.1 mb 0.00 in0.0 mm 0.00 in0.0 mm 0.00 in0.0 mm